Time;durP1;ratioP1;P1;durP2;ratioP2;P2;SDS_P1;SDS_P2;PMS_P1;PMS_P2;Temp;Humidity;BMP_temperature;BMP_pressure;BME280_temperature;BME280_humidity;BME280_pressure;Samples;Min_cycle;Max_cycle;Signal;HPM_P1;HPM_P2
2022/10/02 00:00:40;;;;;;;2.60;1.13;;;12.50;99.90;;;12.62;100.00;100946.38;5247368;28;20036;-71
2022/10/02 00:03:20;;;;;;;3.20;1.25;;;12.50;99.90;;;12.64;100.00;100944.69;5247340;28;20044;-71
2022/10/02 00:05:59;;;;;;;1.70;1.10;;;12.50;99.90;;;12.65;100.00;100941.25;5248203;28;20041;-72
2022/10/02 00:08:35;;;;;;;1.88;1.10;;;12.50;99.90;;;12.66;100.00;100942.16;5245788;28;20052;-72
2022/10/02 00:11:13;;;;;;;1.88;1.13;;;12.50;99.90;;;12.66;100.00;100945.66;5247207;28;20056;-72
2022/10/02 00:13:49;;;;;;;3.10;1.05;;;12.60;99.90;;;12.66;100.00;100956.09;5246114;28;20049;-72
2022/10/02 00:16:28;;;;;;;3.55;1.33;;;12.50;99.90;;;12.65;100.00;100959.56;5247061;28;20040;-73
2022/10/02 00:19:04;;;;;;;2.38;1.10;;;12.50;99.90;;;12.68;100.00;100957.03;5246644;28;20489;-73
2022/10/02 00:22:00;;;;;;;2.90;1.20;;;12.60;99.90;;;12.71;100.00;100951.91;5246904;28;20070;-72
2022/10/02 00:24:39;;;;;;;1.98;1.00;;;12.60;99.90;;;12.75;100.00;100958.09;5247419;28;20044;-71
2022/10/02 00:27:27;;;;;;;4.85;1.20;;;12.60;99.90;;;12.75;100.00;100938.03;5245678;28;20063;-72
2022/10/02 00:30:00;;;;;;;;;;;12.60;99.90;;;12.77;100.00;100945.94;5247517;28;20044;-73
2022/10/02 00:32:43;;;;;;;2.67;1.60;;;12.60;99.90;;;12.79;100.00;100951.22;5246893;28;20247;-72
2022/10/02 00:35:54;;;;;;;3.08;1.10;;;12.70;99.90;;;12.80;100.00;100955.59;5246953;28;20517;-71
2022/10/02 00:38:52;;;;;;;3.95;1.02;;;12.70;99.90;;;12.85;100.00;100943.56;5246098;28;20044;-71
2022/10/02 00:42:10;;;;;;;2.60;1.20;;;12.70;99.90;;;12.89;100.00;100961.09;5247150;28;20551;-73
2022/10/02 00:45:12;;;;;;;2.63;1.00;;;12.70;99.90;;;12.91;100.00;100956.78;5246799;28;20036;-71
2022/10/02 00:47:54;;;;;;;2.80;1.17;;;12.80;99.90;;;12.92;100.00;100959.47;5245405;28;20059;-74
2022/10/02 00:50:37;;;;;;;2.42;1.00;;;12.80;99.90;;;12.96;100.00;100966.53;5246214;28;20044;-75
2022/10/02 00:53:25;;;;;;;2.83;1.10;;;12.80;99.90;;;12.99;100.00;100963.13;5246708;28;20052;-72
2022/10/02 00:56:11;;;;;;;3.50;1.20;;;12.90;99.90;;;13.01;100.00;100970.16;5246951;28;20055;-72
2022/10/02 00:59:27;;;;;;;4.78;1.40;;;12.90;99.90;;;13.03;100.00;100975.44;5246553;28;20052;-74
2022/10/02 01:02:06;;;;;;;1.90;0.98;;;12.90;99.90;;;13.06;100.00;100975.53;5246557;28;20045;-71
2022/10/02 01:04:40;;;;;;;2.88;1.10;;;12.90;99.90;;;13.06;100.00;100959.84;5247253;28;20051;-71
2022/10/02 01:07:14;;;;;;;3.42;1.02;;;12.90;99.90;;;13.08;100.00;100968.59;5246963;28;20032;-72
2022/10/02 01:09:48;;;;;;;2.35;1.17;;;13.00;99.90;;;13.10;100.00;100966.91;5246136;28;20059;-72
2022/10/02 01:12:21;;;;;;;3.38;1.13;;;13.00;99.90;;;13.13;100.00;100972.25;5246467;28;20139;-72
2022/10/02 01:14:53;;;;;;;5.43;1.20;;;13.00;99.90;;;13.13;100.00;100971.34;5246429;28;20677;-70
2022/10/02 01:17:28;;;;;;;3.50;1.08;;;13.00;99.90;;;13.16;100.00;100972.31;5246729;28;20040;-72
2022/10/02 01:20:05;;;;;;;6.45;1.08;;;13.00;99.90;;;13.17;100.00;100979.34;5246610;28;20068;-72
2022/10/02 01:22:46;;;;;;;3.65;0.95;;;13.00;99.90;;;13.19;100.00;100971.53;5245211;28;20045;-71
2022/10/02 01:25:20;;;;;;;2.08;1.10;;;13.10;99.90;;;13.20;100.00;100961.13;5246498;28;20044;-72
2022/10/02 01:27:53;;;;;;;3.10;1.15;;;13.10;99.90;;;13.21;100.00;100970.75;5246346;28;20045;-73
2022/10/02 01:30:25;;;;;;;3.30;1.08;;;13.10;99.90;;;13.21;100.00;100977.72;5243443;28;20068;-71
2022/10/02 01:33:02;;;;;;;3.53;1.20;;;13.10;99.90;;;13.21;100.00;100983.81;5244758;28;20412;-72
2022/10/02 01:35:38;;;;;;;2.35;1.00;;;13.10;99.90;;;13.21;100.00;100989.06;5243487;28;20049;-71
2022/10/02 01:38:14;;;;;;;3.15;1.00;;;13.10;99.90;;;13.21;100.00;100986.44;5245048;28;20045;-71
2022/10/02 01:40:48;;;;;;;3.20;1.20;;;13.10;99.90;;;13.19;100.00;100977.66;5245593;28;20044;-74
2022/10/02 01:43:23;;;;;;;2.42;1.00;;;13.10;99.90;;;13.22;100.00;100982.09;5244801;28;20057;-71
2022/10/02 01:46:04;;;;;;;4.25;1.30;;;13.10;99.90;;;13.24;100.00;100981.31;5245706;28;20053;-71
2022/10/02 01:48:45;;;;;;;3.38;0.93;;;13.10;99.90;;;13.28;100.00;100977.91;5244568;28;20156;-71
2022/10/02 01:51:49;;;;;;;3.33;0.90;;;13.10;99.90;;;13.30;100.00;100976.25;5249430;28;20508;-74
2022/10/02 01:54:36;;;;;;;2.28;1.00;;;13.20;99.90;;;13.34;100.00;100981.53;5249620;28;20127;-73
2022/10/02 01:57:26;;;;;;;4.70;1.02;;;13.20;99.90;;;13.37;100.00;100989.50;5249714;28;20076;-72
2022/10/02 02:00:07;;;;;;;3.58;1.10;;;13.20;99.90;;;13.39;100.00;100985.19;5249932;28;20048;-72
2022/10/02 02:02:58;;;;;;;4.18;0.95;;;13.20;99.90;;;13.42;100.00;100982.63;5248421;28;20053;-71
2022/10/02 02:05:43;;;;;;;2.78;1.00;;;13.30;99.90;;;13.45;100.00;100990.56;5249913;28;20098;-73
2022/10/02 02:08:27;;;;;;;1.40;1.00;;;13.30;99.90;;;13.47;100.00;100988.88;5249573;28;20078;-71
2022/10/02 02:11:10;;;;;;;4.63;1.10;;;13.30;99.90;;;13.50;100.00;100974.13;5249151;28;20040;-72
2022/10/02 02:13:51;;;;;;;4.05;1.20;;;13.40;99.90;;;13.53;100.00;100981.19;5284413;22;20036;-82
2022/10/02 02:16:30;;;;;;;2.75;1.20;;;13.40;99.90;;;13.57;100.00;100985.66;5265055;28;20054;-81
2022/10/02 02:19:11;;;;;;;4.43;1.40;;;13.40;99.90;;;13.59;100.00;100983.97;5268448;28;20058;-81
2022/10/02 02:21:50;;;;;;;2.83;1.13;;;13.40;99.90;;;13.61;100.00;100992.72;5269504;28;20047;-81
2022/10/02 02:24:28;;;;;;;3.65;1.20;;;13.50;99.90;;;13.64;100.00;100992.81;5270629;28;20043;-82
2022/10/02 02:27:04;;;;;;;5.72;1.15;;;13.50;99.90;;;13.67;100.00;100990.25;5268353;28;20067;-81
2022/10/02 02:29:41;;;;;;;4.35;1.30;;;13.50;99.90;;;13.68;100.00;100980.66;5257587;28;20514;-81
2022/10/02 02:32:19;;;;;;;2.70;1.20;;;13.60;99.90;;;13.69;100.00;100965.03;5247904;28;20055;-82
2022/10/02 02:34:59;;;;;;;4.70;1.25;;;13.60;99.90;;;13.70;100.00;100971.13;5249576;28;20055;-81
2022/10/02 02:37:36;;;;;;;4.53;1.52;;;13.60;99.90;;;13.70;100.00;100974.66;5248163;28;20049;-82
2022/10/02 02:40:16;;;;;;;5.40;1.40;;;13.60;99.90;;;13.70;100.00;100977.25;5249059;28;20044;-82
2022/10/02 02:42:56;;;;;;;3.42;1.27;;;13.60;99.90;;;13.68;100.00;100968.47;5239100;28;20088;-81
2022/10/02 02:45:38;;;;;;;6.95;1.30;;;13.60;99.90;;;13.67;100.00;100961.44;5268900;28;20059;-81
2022/10/02 02:48:20;;;;;;;2.80;0.90;;;13.50;99.90;;;13.66;100.00;100962.31;5252356;28;20055;-82
2022/10/02 02:50:58;;;;;;;;;;;13.50;99.90;;;13.65;100.00;100957.91;5270172;28;20040;-82
2022/10/02 02:53:37;;;;;;;1.65;0.85;;;13.50;99.90;;;13.68;100.00;100968.47;5268361;28;19923;-82
2022/10/02 02:56:16;;;;;;;3.47;1.15;;;13.50;99.90;;;13.69;100.00;100975.50;5251764;28;20044;-81
2022/10/02 02:58:55;;;;;;;4.78;1.58;;;13.60;99.90;;;13.73;100.00;100976.44;5251019;28;20070;-82
2022/10/02 03:01:29;;;;;;;5.22;1.30;;;13.60;99.90;;;13.75;100.00;100980.84;5235044;28;20040;-81
2022/10/02 03:04:02;;;;;;;3.55;1.38;;;13.60;99.90;;;13.80;100.00;100978.38;5268272;28;20097;-81
2022/10/02 03:06:37;;;;;;;8.55;1.73;;;13.70;99.90;;;13.84;100.00;100970.63;5251600;28;20533;-80
2022/10/02 03:09:17;;;;;;;7.63;2.05;;;13.70;99.90;;;13.87;100.00;100968.91;5251515;28;20052;-82
2022/10/02 03:11:58;;;;;;;4.53;1.40;;;13.70;99.90;;;13.89;100.00;100973.38;5269627;28;20052;-81
2022/10/02 03:15:02;;;;;;;3.58;1.20;;;13.70;99.90;;;13.91;100.00;100970.78;5268017;28;20048;-82
2022/10/02 03:17:53;;;;;;;7.03;1.40;;;13.80;99.90;;;13.94;100.00;100961.22;5234446;28;20051;-81
2022/10/02 03:20:38;;;;;;;6.70;1.50;;;13.80;99.90;;;13.97;100.00;100965.69;5249093;28;20507;-81
2022/10/02 03:23:22;;;;;;;4.70;1.60;;;13.80;99.90;;;14.01;100.00;100975.38;5267966;28;20426;-81
2022/10/02 03:26:02;;;;;;;4.72;1.40;;;13.90;99.90;;;14.05;100.00;100970.25;5235543;28;20143;-81
2022/10/02 03:28:40;;;;;;;4.00;1.17;;;13.90;99.90;;;14.08;100.00;100979.91;5267351;28;20093;-82
2022/10/02 03:31:16;;;;;;;6.10;1.90;;;13.90;99.90;;;14.10;100.00;100978.22;5251014;28;20395;-82
2022/10/02 03:33:53;;;;;;;7.82;1.52;;;13.90;99.90;;;14.15;100.00;100994.94;5235433;28;20059;-81
2022/10/02 03:36:27;;;;;;;6.00;1.42;;;14.00;99.90;;;14.17;100.00;100985.38;5233765;28;20066;-82
2022/10/02 03:39:06;;;;;;;11.30;1.45;;;14.00;99.90;;;14.19;100.00;100994.16;5250711;28;20051;-82
2022/10/02 03:41:38;;;;;;;4.43;1.35;;;14.00;99.90;;;14.19;100.00;100973.19;5250329;28;20503;-82
2022/10/02 03:44:11;;;;;;;5.32;1.77;;;14.10;99.90;;;14.21;100.00;100962.72;5250446;28;20047;-82
2022/10/02 03:46:45;;;;;;;6.63;1.67;;;14.10;99.90;;;14.24;100.00;100975.91;5234283;28;20081;-81
2022/10/02 03:49:19;;;;;;;9.18;1.90;;;14.10;99.90;;;14.24;100.00;100973.28;5268552;28;20051;-81
2022/10/02 03:51:52;;;;;;;;;;;14.10;99.90;;;14.23;100.00;100975.03;5250471;28;20040;-81
2022/10/02 03:54:31;;;;;;;5.88;1.58;;;14.10;99.90;;;14.23;100.00;100979.41;5233846;28;19927;-81
2022/10/02 03:57:07;;;;;;;5.72;1.60;;;14.10;99.90;;;14.24;100.00;100978.53;5268886;28;20097;-81
2022/10/02 03:59:48;;;;;;;4.70;1.50;;;14.10;99.90;;;14.24;100.00;100979.41;5268167;28;20051;-81
2022/10/02 04:02:29;;;;;;;5.72;1.20;;;14.10;99.90;;;14.25;100.00;100970.69;5250165;28;20067;-81
2022/10/02 04:05:09;;;;;;;;;;;14.10;99.90;;;14.24;100.00;100982.03;5251000;28;20074;-82
2022/10/02 04:07:46;;;;;;;5.72;1.40;;;14.10;99.90;;;14.25;100.00;100981.19;5242402;28;19927;-82
2022/10/02 04:10:32;;;;;;;6.40;1.75;;;14.10;99.90;;;14.26;100.00;100980.31;5266316;28;20042;-82
2022/10/02 04:13:13;;;;;;;5.97;1.50;;;14.10;99.90;;;14.25;100.00;100981.19;5266969;28;20040;-81
2022/10/02 04:16:05;;;;;;;6.30;2.00;;;14.10;99.90;;;14.25;100.00;100978.56;5232828;28;20076;-81
2022/10/02 04:18:49;;;;;;;6.03;1.20;;;14.10;99.90;;;14.24;100.00;100979.41;5249020;28;20050;-82
2022/10/02 04:21:41;;;;;;;4.95;1.17;;;14.10;99.90;;;14.26;100.00;100974.19;5259373;28;20039;-81
2022/10/02 04:24:25;;;;;;;3.65;1.40;;;14.10;99.90;;;14.25;100.00;100978.56;5270467;28;20040;-81
2022/10/02 04:27:04;;;;;;;4.35;1.20;;;14.10;99.90;;;14.25;100.00;100978.56;5269770;28;20047;-80
2022/10/02 04:29:40;;;;;;;3.60;1.25;;;14.10;99.90;;;14.26;100.00;100988.19;5270217;28;20059;-81
2022/10/02 04:32:16;;;;;;;3.53;1.52;;;14.10;99.90;;;14.26;100.00;100985.56;5253544;28;20054;-81
2022/10/02 04:34:49;;;;;;;2.13;1.00;;;14.20;99.90;;;14.27;100.00;100995.22;5253445;28;20075;-81
2022/10/02 04:37:48;;;;;;;2.83;1.00;;;14.10;99.90;;;14.27;100.00;100983.84;5267741;28;20142;-81
2022/10/02 04:40:49;;;;;;;3.00;1.52;;;14.10;99.90;;;14.25;100.00;100991.69;5248942;28;20438;-82
2022/10/02 04:43:44;;;;;;;2.80;1.38;;;14.10;99.90;;;14.22;100.00;101004.72;5251902;28;20265;-81
2022/10/02 04:46:48;;;;;;;1.48;1.00;;;14.10;99.90;;;14.20;100.00;101001.16;5249513;28;20044;-82
2022/10/02 04:49:54;;;;;;;2.65;1.05;;;14.10;99.90;;;14.17;100.00;100998.47;5263105;28;20052;-80
2022/10/02 04:53:01;;;;;;;1.45;1.02;;;14.00;99.90;;;14.15;100.00;101000.19;5268691;28;20043;-80
2022/10/02 04:55:46;;;;;;;;;;;14.00;99.90;;;14.13;100.00;101004.50;5239945;28;20051;-81
2022/10/02 04:58:48;;;;;;;1.23;1.10;;;14.00;99.90;;;14.13;100.00;101001.88;5253897;28;20314;-80
2022/10/02 05:01:35;;;;;;;2.65;0.90;;;14.00;99.90;;;14.13;100.00;101004.50;5288426;28;20047;-81
2022/10/02 05:04:37;;;;;;;2.80;1.00;;;14.00;99.90;;;14.13;100.00;100999.25;5253135;28;20047;-81
2022/10/02 05:07:37;;;;;;;4.30;1.00;;;14.00;99.90;;;14.12;100.00;101002.72;5269583;28;20067;-81
2022/10/02 05:10:35;;;;;;;3.50;1.40;;;14.00;99.90;;;14.13;100.00;101005.38;5272969;28;20046;-81
2022/10/02 05:13:27;;;;;;;3.67;1.25;;;14.00;99.90;;;14.14;100.00;100995.78;5269592;28;20047;-80
2022/10/02 05:16:20;;;;;;;3.85;1.02;;;14.00;99.90;;;14.13;100.00;101001.88;5238751;28;20056;-81
2022/10/02 05:19:12;;;;;;;3.38;1.35;;;14.00;99.90;;;14.14;100.00;101001.00;5236117;28;20052;-81
2022/10/02 05:22:20;;;;;;;1.38;0.90;;;14.00;99.90;;;14.15;100.00;101002.81;5269210;28;20126;-81
2022/10/02 05:25:11;;;;;;;3.17;1.42;;;14.00;99.90;;;14.16;100.00;100999.34;5274052;28;20053;-80
2022/10/02 05:28:13;;;;;;;3.42;1.30;;;14.00;99.90;;;14.17;100.00;100997.59;5257297;28;20589;-81
2022/10/02 05:30:52;;;;;;;;;;;14.00;99.90;;;14.17;100.00;101005.47;5257309;28;20449;-80
2022/10/02 05:33:49;;;;;;;6.45;1.20;;;14.00;99.90;;;14.19;100.00;101003.75;5292148;28;19935;-81
2022/10/02 05:36:52;;;;;;;6.78;1.48;;;14.00;99.90;;;14.19;100.00;101014.25;5289906;28;20047;-81
2022/10/02 05:39:31;;;;;;;5.40;1.42;;;14.00;99.90;;;14.20;100.00;101006.41;5260798;28;20052;-81
2022/10/02 05:42:16;;;;;;;5.97;1.70;;;14.00;99.90;;;14.21;100.00;101012.53;5256521;28;20035;-80
2022/10/02 05:44:55;;;;;;;5.07;1.80;;;14.00;99.90;;;14.23;100.00;101022.22;5273627;28;20702;-80
2022/10/02 05:47:31;;;;;;;3.50;1.48;;;14.10;99.90;;;14.24;100.00;101025.72;5291176;28;20390;-80
2022/10/02 05:50:15;;;;;;;3.83;1.20;;;14.10;99.90;;;14.26;100.00;101027.53;5272210;28;20044;-79
2022/10/02 05:52:56;;;;;;;2.15;1.02;;;14.10;99.90;;;14.27;100.00;101024.06;5269848;28;20044;-80
2022/10/02 05:55:35;;;;;;;2.38;1.17;;;14.10;99.90;;;14.28;100.00;101024.94;5252194;28;20056;-80
2022/10/02 05:58:17;;;;;;;2.97;1.20;;;14.10;99.90;;;14.27;100.00;101021.44;5252307;28;20040;-80
2022/10/02 06:00:58;;;;;;;2.35;0.90;;;14.20;99.90;;;14.30;100.00;101026.75;5270257;28;20040;-81
2022/10/02 06:03:40;;;;;;;2.20;1.00;;;14.20;99.90;;;14.32;100.00;101022.44;5270259;28;20139;-81
2022/10/02 06:06:18;;;;;;;1.10;0.80;;;14.20;99.90;;;14.34;100.00;101031.25;5243922;28;20504;-79
2022/10/02 06:08:58;;;;;;;1.48;0.70;;;14.20;99.90;;;14.36;100.00;101034.78;5258347;28;20051;-79
2022/10/02 06:11:36;;;;;;;1.92;1.02;;;14.20;99.90;;;14.39;100.00;101034.81;5269935;28;20086;-79
2022/10/02 06:14:15;;;;;;;1.30;0.90;;;14.20;99.90;;;14.40;100.00;101039.22;5270081;28;20123;-79
2022/10/02 06:16:56;;;;;;;1.92;0.80;;;14.20;99.90;;;14.42;100.00;101038.41;5234889;28;20085;-79
2022/10/02 06:19:35;;;;;;;3.30;1.13;;;14.20;99.90;;;14.44;100.00;101042.81;5268150;28;20055;-79
2022/10/02 06:22:13;;;;;;;3.08;0.90;;;14.30;99.90;;;14.47;100.00;101044.63;5252238;28;20128;-78
2022/10/02 06:24:53;;;;;;;2.75;1.13;;;14.30;99.90;;;14.48;100.00;101043.81;5272613;28;20047;-78
2022/10/02 06:27:35;;;;;;;2.50;0.85;;;14.30;99.90;;;14.50;100.00;101042.09;5272976;28;20044;-79
2022/10/02 06:30:13;;;;;;;3.47;0.90;;;14.30;99.90;;;14.50;100.00;101049.97;5290502;28;20039;-78
2022/10/02 06:32:54;;;;;;;2.17;0.93;;;14.30;99.90;;;14.51;100.00;101052.63;5255376;28;20088;-78
2022/10/02 06:35:44;;;;;;;1.13;0.68;;;14.30;99.90;;;14.54;100.00;101062.28;5289809;28;20047;-79
2022/10/02 06:38:32;;;;;;;2.60;0.90;;;14.30;99.90;;;14.55;100.00;101064.09;5255627;28;20044;-79
2022/10/02 06:41:12;;;;;;;;;;;14.40;99.90;;;14.55;100.00;101071.97;5272943;28;20047;-79
2022/10/02 06:44:12;;;;;;;2.05;0.73;;;14.30;99.90;;;14.56;100.00;101079.84;5255719;28;19920;-79
2022/10/02 06:47:00;;;;;;;1.33;0.70;;;14.40;99.90;;;14.56;100.00;101069.34;5255478;28;20058;-79
2022/10/02 06:49:50;;;;;;;2.47;0.82;;;14.40;99.90;;;14.56;100.00;101078.97;5288853;28;20071;-79
2022/10/02 06:52:35;;;;;;;3.03;1.20;;;14.40;99.90;;;14.57;100.00;101075.50;5289563;28;20048;-78
2022/10/02 06:55:34;;;;;;;2.75;1.23;;;14.40;99.90;;;14.59;100.00;101085.16;5255385;28;20466;-79
2022/10/02 06:58:33;;;;;;;4.10;1.60;;;14.40;99.90;;;14.60;100.00;101084.31;5256186;28;20044;-79
2022/10/02 07:01:19;;;;;;;2.08;0.95;;;14.40;99.90;;;14.62;100.00;101084.34;5271743;28;20044;-79
2022/10/02 07:04:11;;;;;;;1.80;0.95;;;14.40;99.90;;;14.62;100.00;101086.97;5271830;28;20561;-78
2022/10/02 07:06:59;;;;;;;2.92;1.33;;;14.40;99.90;;;14.63;100.00;101094.88;5271897;28;20425;-78
2022/10/02 07:10:16;;;;;;;2.00;1.00;;;14.40;99.90;;;14.65;100.00;101097.53;5271811;28;20122;-79
2022/10/02 07:13:31;;;;;;;3.30;1.10;;;14.50;99.90;;;14.66;100.00;101088.81;5284505;28;20039;-79
2022/10/02 07:16:59;;;;;;;2.25;1.27;;;14.50;99.90;;;14.70;100.00;101093.28;5229136;28;20096;-78
2022/10/02 07:19:53;;;;;;;1.40;1.17;;;14.50;99.90;;;14.72;100.00;101096.81;5271170;28;20047;-80
2022/10/02 07:22:50;;;;;;;2.70;1.33;;;14.50;99.90;;;14.74;100.00;101100.38;5271375;28;20046;-78
2022/10/02 07:26:04;;;;;;;1.50;1.00;;;14.60;99.90;;;14.74;100.00;101105.63;5272719;28;20048;-78
2022/10/02 07:28:42;;;;;;;1.58;1.10;;;14.50;99.90;;;14.77;100.00;101112.69;5268668;28;20579;-80
2022/10/02 07:31:29;;;;;;;1.35;1.02;;;14.50;99.90;;;14.78;100.00;101110.09;5271222;28;20089;-78
2022/10/02 07:34:20;;;;;;;1.85;1.10;;;14.60;99.90;;;14.79;100.00;101110.97;5272711;28;20055;-78
2022/10/02 07:37:09;;;;;;;3.72;1.20;;;14.60;99.90;;;14.80;100.00;101111.03;5270526;28;20067;-78
2022/10/02 07:40:00;;;;;;;2.28;1.20;;;14.60;99.90;;;14.81;100.00;101112.78;5254721;28;20051;-79
2022/10/02 07:43:11;;;;;;;1.83;1.52;;;14.60;99.90;;;14.84;100.00;101102.34;5271077;28;20074;-80
2022/10/02 07:45:52;;;;;;;3.35;1.70;;;14.60;99.90;;;14.88;100.00;101103.31;5289201;28;20422;-78
2022/10/02 07:48:50;;;;;;;1.77;1.40;;;14.70;99.90;;;14.93;100.00;101110.44;5288965;28;20039;-78
2022/10/02 07:51:49;;;;;;;2.20;1.00;;;14.70;99.90;;;15.00;100.00;101118.47;5253275;28;20712;-79
2022/10/02 07:55:14;;;;;;;3.47;1.50;;;14.80;99.90;;;15.05;100.00;101119.41;5284777;28;20403;-78
2022/10/02 07:57:59;;;;;;;3.22;1.10;;;14.80;99.90;;;15.10;100.00;101121.28;5262188;28;20556;-78
2022/10/02 08:00:39;;;;;;;2.72;1.30;;;14.90;99.90;;;15.15;100.00;101126.66;5249472;28;20051;-76
2022/10/02 08:03:17;;;;;;;2.97;1.27;;;14.90;99.90;;;15.19;100.00;101137.25;5249656;28;20116;-78
2022/10/02 08:05:53;;;;;;;4.45;1.90;;;15.00;99.90;;;15.23;100.00;101143.44;5249893;28;20445;-81
2022/10/02 08:08:38;;;;;;;4.18;1.50;;;15.00;99.90;;;15.25;100.00;101146.97;5249423;28;20396;-80
2022/10/02 08:11:17;;;;;;;2.85;1.15;;;15.00;99.90;;;15.27;100.00;101142.69;5249486;28;20046;-79
2022/10/02 08:13:58;;;;;;;1.80;1.05;;;15.10;99.90;;;15.28;100.00;101136.56;5390096;22;20036;-54
2022/10/02 08:16:36;;;;;;;2.70;1.10;;;15.10;99.90;;;15.29;100.00;101130.44;5245674;28;20047;-54
2022/10/02 08:19:16;;;;;;;2.15;1.10;;;15.10;99.90;;;15.31;100.00;101141.88;5245599;28;20041;-54
2022/10/02 08:21:54;;;;;;;2.38;1.40;;;15.10;99.90;;;15.33;100.00;101142.81;5231600;28;20409;-53
2022/10/02 08:24:31;;;;;;;3.60;1.65;;;15.10;99.90;;;15.35;100.00;101141.09;5225011;28;20406;-54
2022/10/02 08:27:09;;;;;;;3.15;1.30;;;15.20;99.90;;;15.36;100.00;101141.97;5225308;28;20095;-53
2022/10/02 08:29:48;;;;;;;2.85;1.20;;;15.20;99.90;;;15.34;100.00;101136.69;5225662;28;20067;-53
2022/10/02 08:32:21;;;;;;;1.25;1.05;;;15.20;99.90;;;15.33;100.00;101144.56;5225486;28;20037;-53
2022/10/02 08:34:53;;;;;;;2.75;1.58;;;15.10;99.90;;;15.31;100.00;101146.22;5225991;28;20095;-53
2022/10/02 08:37:37;;;;;;;3.35;1.92;;;15.10;99.90;;;15.29;100.00;101140.97;5225635;28;20405;-54
2022/10/02 08:41:00;;;;;;;2.97;1.60;;;15.10;99.90;;;15.28;100.00;101141.81;5225275;28;20049;-53
2022/10/02 08:44:09;;;;;;;3.33;1.58;;;15.10;99.90;;;15.29;100.00;101154.09;5232935;28;20090;-53
2022/10/02 08:47:41;;;;;;;2.95;1.58;;;15.10;99.90;;;15.32;100.00;101148.91;5245919;28;20049;-52
2022/10/02 08:50:52;;;;;;;2.10;1.20;;;15.10;99.90;;;15.33;100.00;101149.81;5245750;28;20044;-53
2022/10/02 08:53:58;;;;;;;1.95;1.10;;;15.10;99.90;;;15.35;100.00;101146.34;5245765;28;20041;-53
2022/10/02 08:56:51;;;;;;;2.15;1.15;;;15.10;99.90;;;15.38;100.00;101140.25;5245924;28;20047;-53
2022/10/02 09:00:05;;;;;;;1.90;1.05;;;15.10;99.90;;;15.44;100.00;101146.50;5244443;28;20044;-53
2022/10/02 09:03:44;;;;;;;2.38;1.00;;;15.20;99.90;;;15.56;100.00;101147.63;5221797;28;20063;-54
2022/10/02 09:06:48;;;;;;;;;;;15.30;99.90;;;15.68;100.00;101155.78;5245948;28;20076;-54
2022/10/02 09:10:26;;;;;;;1.70;0.88;;;15.40;99.90;;;15.72;100.00;101152.38;5245455;28;19920;-53
2022/10/02 09:14:01;;;;;;;0.93;0.77;;;15.40;99.90;;;15.83;100.00;101161.34;5245778;28;20082;-54
2022/10/02 09:16:49;;;;;;;0.98;0.75;;;15.50;99.90;;;15.94;100.00;101157.19;5245868;28;20119;-54
2022/10/02 09:19:41;;;;;;;3.55;1.23;;;15.60;99.90;;;16.08;100.00;101167.06;5245344;28;20678;-55
2022/10/02 09:22:45;;;;;;;3.10;0.85;;;15.70;99.90;;;16.16;100.00;101152.28;5245812;28;20461;-53
2022/10/02 09:25:34;;;;;;;2.35;0.95;;;15.80;99.90;;;16.17;100.00;101175.09;5246104;28;20519;-55
2022/10/02 09:29:05;;;;;;;1.52;0.63;;;15.80;99.90;;;16.16;100.00;101162.81;5246119;28;20493;-53
2022/10/02 09:32:28;;;;;;;1.27;0.70;;;15.90;99.90;;;16.16;100.00;101153.19;5243875;28;20060;-52
2022/10/02 09:35:40;;;;;;;2.20;1.05;;;15.90;99.90;;;16.20;100.00;101159.41;5245609;28;20051;-55
2022/10/02 09:38:47;;;;;;;2.13;0.95;;;15.90;99.90;;;16.37;100.00;101155.31;5245516;28;20076;-54
2022/10/02 09:42:00;;;;;;;2.78;0.93;;;16.00;99.90;;;16.43;100.00;101165.94;5245446;28;20131;-54
2022/10/02 09:45:02;;;;;;;3.40;0.93;;;16.10;99.90;;;16.34;100.00;101157.88;5245698;28;20052;-54
2022/10/02 09:48:14;;;;;;;3.20;0.82;;;16.00;99.90;;;16.25;100.00;101163.88;5245361;28;20123;-53
2022/10/02 09:51:44;;;;;;;1.48;0.80;;;16.00;99.90;;;16.15;100.00;101166.31;5260355;28;20552;-54
2022/10/02 09:55:14;;;;;;;2.63;0.65;;;16.00;99.90;;;16.12;100.00;101158.38;5245325;28;20048;-54
2022/10/02 09:58:46;;;;;;;1.83;0.93;;;15.90;99.90;;;16.17;100.00;101154.06;5245503;28;20045;-53
2022/10/02 10:01:45;;;;;;;3.05;0.68;;;15.90;99.90;;;16.14;100.00;101175.06;5231335;28;20053;-53
2022/10/02 10:04:46;;;;;;;3.75;1.15;;;15.90;99.90;;;16.06;100.00;101166.16;5227040;28;20057;-55
2022/10/02 10:08:01;;;;;;;2.08;0.80;;;15.90;99.90;;;15.98;100.00;101164.28;5247068;28;20044;-53
2022/10/02 10:11:12;;;;;;;2.60;0.90;;;15.80;99.90;;;15.98;100.00;101182.69;5246029;28;20049;-56
2022/10/02 10:14:40;;;;;;;3.50;0.90;;;15.80;99.90;;;15.98;100.00;101173.91;5249941;28;20056;-56
2022/10/02 10:18:08;;;;;;;1.83;0.75;;;15.80;99.90;;;16.01;100.00;101174.84;5249587;28;20055;-58
2022/10/02 10:21:12;;;;;;;4.82;1.20;;;15.80;99.90;;;16.08;100.00;101174.94;5249394;28;20105;-56
2022/10/02 10:24:49;;;;;;;1.50;0.93;;;15.80;99.90;;;16.16;100.00;101178.59;5249840;28;20094;-58
2022/10/02 10:27:48;;;;;;;5.15;1.35;;;15.90;99.90;;;16.18;100.00;101183.06;5230165;28;20056;-53
2022/10/02 10:31:22;;;;;;;3.58;0.80;;;16.00;99.90;;;16.13;100.00;101183.81;5248273;28;20044;-53
2022/10/02 10:34:53;;;;;;;6.47;0.88;;;15.90;99.90;;;16.15;100.00;101182.09;5225173;28;20048;-52
2022/10/02 10:41:10;;;;;;;4.47;1.13;;;15.90;99.90;;;16.23;100.00;101191.00;5263842;28;20539;-55
2022/10/02 10:44:27;;;;;;;2.45;0.70;;;16.00;99.90;;;16.30;100.00;101198.16;5248453;28;20075;-54
2022/10/02 10:47:38;;;;;;;2.58;0.70;;;16.10;99.90;;;16.29;100.00;101207.78;5248463;28;20123;-53
2022/10/02 10:50:37;;;;;;;2.42;0.88;;;16.10;99.90;;;16.23;100.00;101198.88;5248006;28;20049;-53
2022/10/02 10:53:38;;;;;;;3.13;0.77;;;16.00;99.90;;;16.19;100.00;101194.44;5248169;28;20107;-55
2022/10/02 10:56:35;;;;;;;2.75;1.10;;;16.00;99.90;;;16.16;100.00;101204.91;5248931;28;20445;-54
2022/10/02 10:59:49;;;;;;;2.83;1.15;;;16.00;99.90;;;16.17;100.00;101211.94;5247890;28;20458;-54
2022/10/02 11:03:00;;;;;;;5.30;1.60;;;16.00;99.90;;;16.19;100.00;101213.75;5247815;28;20064;-54
2022/10/02 11:06:21;;;;;;;5.38;0.95;;;16.00;99.90;;;16.19;100.00;101216.38;5248049;28;20136;-52
2022/10/02 11:09:51;;;;;;;2.80;1.20;;;16.00;99.90;;;16.15;100.00;101213.66;5247786;28;20225;-54
2022/10/02 11:13:06;;;;;;;5.90;1.10;;;15.90;99.90;;;16.21;100.00;101216.41;5247538;28;20047;-53
2022/10/02 11:16:23;;;;;;;3.38;1.10;;;16.00;99.90;;;16.37;100.00;101222.84;5247814;28;20127;-52
2022/10/02 11:19:26;;;;;;;3.05;1.20;;;16.10;99.90;;;16.50;100.00;101215.19;5263243;28;20139;-53
2022/10/02 11:22:20;;;;;;;4.30;1.00;;;16.20;99.90;;;16.63;100.00;101225.94;5247294;28;20045;-59
2022/10/02 11:25:35;;;;;;;2.17;1.00;;;16.30;99.90;;;16.74;100.00;101234.91;5248056;28;20335;-53
2022/10/02 11:29:02;;;;;;;3.33;0.93;;;16.40;99.90;;;16.80;100.00;101240.28;5242662;28;20064;-52
2022/10/02 11:32:34;;;;;;;4.95;1.30;;;16.50;99.90;;;16.86;100.00;101243.00;5239203;28;20057;-53
2022/10/02 11:35:47;;;;;;;5.25;1.40;;;16.60;99.90;;;16.84;100.00;101251.75;5247477;28;20404;-53
2022/10/02 11:38:56;;;;;;;3.83;1.23;;;16.60;99.90;;;16.79;100.00;101252.56;5247256;28;20083;-53
2022/10/02 11:42:16;;;;;;;4.35;0.95;;;16.50;99.90;;;16.79;100.00;101249.91;5247184;28;20049;-53
2022/10/02 11:45:31;;;;;;;4.05;1.15;;;16.60;99.90;;;16.80;100.00;101250.81;5227555;28;20056;-54
2022/10/02 11:48:48;;;;;;;5.95;1.38;;;16.50;99.90;;;16.79;100.00;101235.88;5247627;28;20052;-55
2022/10/02 11:51:39;;;;;;;2.45;1.02;;;16.50;99.90;;;16.78;100.00;101244.63;5247040;28;20040;-57